Time;durP1;ratioP1;P1;durP2;ratioP2;P2;SDS_P1;SDS_P2;PMS_P1;PMS_P2;Temp;Humidity;BMP_temperature;BMP_pressure;BME280_temperature;BME280_humidity;BME280_pressure;Samples;Min_cycle;Max_cycle;Signal;HPM_P1;HPM_P2
2021/03/21 00:02:06;;;;;;;8.27;6.40;;;;;;;;;;5116791;28;20307;-68
2021/03/21 00:04:33;;;;;;;6.75;6.05;;;;;;;;;;5117106;28;20300;-68
2021/03/21 00:07:00;;;;;;;8.38;6.30;;;;;;;;;;5116814;28;20291;-67
2021/03/21 00:09:26;;;;;;;10.05;7.45;;;;;;;;;;5117278;28;20288;-67
2021/03/21 00:11:53;;;;;;;6.85;6.15;;;;;;;;;;5117549;28;20745;-67
2021/03/21 00:14:21;;;;;;;6.30;5.70;;;;;;;;;;5117029;28;20229;-67
2021/03/21 00:16:47;;;;;;;6.43;5.65;;;;;;;;;;5116693;28;20289;-67
2021/03/21 00:19:14;;;;;;;13.63;7.68;;;;;;;;;;5116635;28;20194;-67
2021/03/21 00:21:41;;;;;;;5.95;5.40;;;;;;;;;;5116530;28;20259;-67
2021/03/21 00:24:08;;;;;;;9.18;6.93;;;;;;;;;;5116489;28;20228;-67
2021/03/21 00:26:35;;;;;;;8.57;7.13;;;;;;;;;;5116368;28;20237;-67
2021/03/21 00:29:02;;;;;;;10.30;7.75;;;;;;;;;;5116394;28;20280;-68
2021/03/21 00:31:30;;;;;;;7.95;7.15;;;;;;;;;;5116632;28;20295;-68
2021/03/21 00:33:56;;;;;;;9.90;7.30;;;;;;;;;;5116586;28;20200;-68
2021/03/21 00:36:23;;;;;;;10.63;8.07;;;;;;;;;;5116582;28;20292;-67
2021/03/21 00:38:52;;;;;;;7.70;6.60;;;;;;;;;;5116496;28;20258;-67
2021/03/21 00:41:20;;;;;;;8.73;7.63;;;;;;;;;;5116051;28;20220;-66
2021/03/21 00:43:47;;;;;;;9.60;7.78;;;;;;;;;;5116936;28;20241;-66
2021/03/21 00:46:14;;;;;;;8.02;6.57;;;;;;;;;;5116393;28;20203;-67
2021/03/21 00:48:43;;;;;;;11.10;7.18;;;;;;;;;;5116767;28;20220;-67
2021/03/21 00:51:10;;;;;;;9.65;8.48;;;;;;;;;;5116276;28;20354;-67
2021/03/21 00:53:37;;;;;;;10.13;8.10;;;;;;;;;;5116218;28;20351;-67
2021/03/21 00:56:04;;;;;;;11.70;8.95;;;;;;;;;;5116238;28;20608;-68
2021/03/21 00:58:31;;;;;;;13.38;8.65;;;;;;;;;;5116161;28;20312;-68
2021/03/21 01:01:01;;;;;;;15.77;8.25;;;;;;;;;;5115671;28;20289;-67
2021/03/21 01:03:28;;;;;;;10.45;8.45;;;;;;;;;;5114997;28;20253;-67
2021/03/21 01:05:57;;;;;;;8.52;7.28;;;;;;;;;;5116015;28;20333;-67
2021/03/21 01:08:26;;;;;;;9.20;7.80;;;;;;;;;;5115592;28;20197;-68
2021/03/21 01:10:53;;;;;;;10.88;8.57;;;;;;;;;;5115548;28;20280;-68
2021/03/21 01:13:20;;;;;;;9.75;7.85;;;;;;;;;;5115641;28;20232;-67
2021/03/21 01:15:47;;;;;;;10.95;8.65;;;;;;;;;;5116272;28;20225;-67
2021/03/21 01:18:16;;;;;;;11.05;7.63;;;;;;;;;;5115441;28;20279;-68
2021/03/21 01:20:43;;;;;;;10.23;8.40;;;;;;;;;;5115602;28;20330;-68
2021/03/21 01:23:10;;;;;;;10.15;7.55;;;;;;;;;;5115333;28;20227;-68
2021/03/21 01:25:37;;;;;;;11.38;8.35;;;;;;;;;;5115172;28;20283;-67
2021/03/21 01:28:04;;;;;;;9.75;7.57;;;;;;;;;;5115716;28;20280;-68
2021/03/21 01:30:31;;;;;;;10.55;8.30;;;;;;;;;;5115522;28;20276;-67
2021/03/21 01:32:58;;;;;;;10.75;6.80;;;;;;;;;;5115130;28;20292;-67
2021/03/21 01:35:24;;;;;;;8.15;7.30;;;;;;;;;;5115401;28;20201;-68
2021/03/21 01:37:51;;;;;;;10.85;7.95;;;;;;;;;;5115374;28;20280;-68
2021/03/21 01:40:19;;;;;;;11.15;8.40;;;;;;;;;;5115385;28;20313;-68
2021/03/21 01:42:48;;;;;;;10.82;9.35;;;;;;;;;;5114765;28;20308;-69
2021/03/21 01:45:31;;;;;;;11.15;8.95;;;;;;;;;;5115170;28;20279;-68
2021/03/21 01:47:58;;;;;;;11.50;9.05;;;;;;;;;;5115014;28;20241;-68
2021/03/21 01:50:28;;;;;;;10.85;8.63;;;;;;;;;;5115569;28;20390;-69
2021/03/21 01:52:55;;;;;;;13.38;10.57;;;;;;;;;;5115222;28;20283;-68
2021/03/21 01:55:24;;;;;;;12.40;9.80;;;;;;;;;;5114644;28;20241;-69
2021/03/21 01:57:52;;;;;;;11.82;10.05;;;;;;;;;;5114236;28;20256;-70
2021/03/21 02:00:19;;;;;;;13.85;8.57;;;;;;;;;;5114780;28;20189;-69
2021/03/21 02:02:46;;;;;;;10.32;8.40;;;;;;;;;;5114643;28;20261;-68
2021/03/21 02:05:13;;;;;;;10.30;8.88;;;;;;;;;;5114480;28;20635;-68
2021/03/21 02:07:47;;;;;;;9.80;7.50;;;;;;;;;;5114745;28;20226;-68
2021/03/21 02:10:18;;;;;;;11.10;7.68;;;;;;;;;;5115001;28;20607;-67
2021/03/21 02:12:54;;;;;;;10.05;5.70;;;;;;;;;;5114340;28;20193;-68
2021/03/21 02:15:25;;;;;;;7.70;6.90;;;;;;;;;;5113317;28;20272;-68
2021/03/21 02:17:55;;;;;;;11.68;7.28;;;;;;;;;;5114530;28;20212;-68
2021/03/21 02:20:40;;;;;;;8.43;7.07;;;;;;;;;;5114242;28;20216;-68
2021/03/21 02:23:08;;;;;;;9.73;7.05;;;;;;;;;;5114563;28;20541;-68
2021/03/21 02:26:03;;;;;;;7.93;7.13;;;;;;;;;;5113921;28;20201;-67
2021/03/21 02:28:37;;;;;;;6.80;5.68;;;;;;;;;;5114264;28;20698;-67
2021/03/21 02:31:06;;;;;;;6.05;5.40;;;;;;;;;;5113911;28;20269;-68
2021/03/21 02:33:36;;;;;;;8.05;7.22;;;;;;;;;;5114969;28;20280;-67
2021/03/21 02:36:07;;;;;;;7.97;7.07;;;;;;;;;;5114203;28;20224;-68
2021/03/21 02:38:36;;;;;;;9.63;6.28;;;;;;;;;;5114524;28;20264;-69
2021/03/21 02:41:05;;;;;;;7.40;5.90;;;;;;;;;;5113699;28;20237;-68
2021/03/21 02:43:35;;;;;;;7.50;6.72;;;;;;;;;;5114591;28;20250;-67
2021/03/21 02:46:05;;;;;;;10.50;6.90;;;;;;;;;;5113663;28;20723;-67
2021/03/21 02:48:35;;;;;;;7.38;6.53;;;;;;;;;;5114363;28;20264;-67
2021/03/21 02:51:02;;;;;;;11.65;8.20;;;;;;;;;;5113916;28;20334;-67
2021/03/21 02:53:30;;;;;;;7.70;5.35;;;;;;;;;;5113823;28;20189;-68
2021/03/21 02:55:59;;;;;;;8.95;7.20;;;;;;;;;;5113911;28;20291;-67
2021/03/21 02:58:28;;;;;;;8.20;6.45;;;;;;;;;;5114007;28;20733;-67
2021/03/21 03:00:57;;;;;;;7.90;6.47;;;;;;;;;;5113511;28;20292;-68
2021/03/21 03:03:25;;;;;;;8.98;7.10;;;;;;;;;;5113724;28;20592;-67
2021/03/21 03:05:55;;;;;;;10.10;7.10;;;;;;;;;;5113759;28;20323;-67
2021/03/21 03:08:25;;;;;;;9.27;7.00;;;;;;;;;;5114074;28;20217;-67
2021/03/21 03:10:54;;;;;;;12.00;7.38;;;;;;;;;;5114026;28;20280;-67
2021/03/21 03:13:23;;;;;;;9.82;8.55;;;;;;;;;;5113726;28;20284;-67
2021/03/21 03:15:50;;;;;;;9.60;7.50;;;;;;;;;;5113682;28;20279;-68
2021/03/21 03:18:21;;;;;;;9.43;6.13;;;;;;;;;;5113334;28;20280;-67
2021/03/21 03:20:50;;;;;;;9.05;6.93;;;;;;;;;;5113337;28;20216;-69
2021/03/21 03:23:22;;;;;;;7.63;6.75;;;;;;;;;;5113216;28;20312;-68
2021/03/21 03:25:52;;;;;;;8.45;7.55;;;;;;;;;;5114242;28;20181;-68
2021/03/21 03:28:21;;;;;;;8.57;6.05;;;;;;;;;;5118662;28;20284;-68
2021/03/21 03:30:51;;;;;;;9.57;7.97;;;;;;;;;;5117824;28;20232;-69
2021/03/21 03:33:19;;;;;;;12.00;8.48;;;;;;;;;;5118031;28;20234;-67
2021/03/21 03:35:45;;;;;;;10.25;8.43;;;;;;;;;;5117402;28;20245;-69
2021/03/21 03:38:13;;;;;;;11.82;8.50;;;;;;;;;;5118158;28;20280;-67
2021/03/21 03:40:42;;;;;;;10.50;8.10;;;;;;;;;;5117581;28;20652;-69
2021/03/21 03:43:23;;;;;;;9.15;8.15;;;;;;;;;;5117439;28;20255;-67
2021/03/21 03:45:53;;;;;;;11.13;8.25;;;;;;;;;;5117214;28;20241;-69
2021/03/21 03:48:24;;;;;;;12.10;9.38;;;;;;;;;;5117149;28;20193;-68
2021/03/21 03:50:57;;;;;;;14.60;8.52;;;;;;;;;;5117197;28;20237;-69
2021/03/21 03:53:31;;;;;;;10.43;9.32;;;;;;;;;;5117143;28;20183;-68
2021/03/21 03:56:03;;;;;;;15.98;8.98;;;;;;;;;;5117440;28;20624;-68
2021/03/21 03:58:31;;;;;;;10.52;8.80;;;;;;;;;;5118012;28;20318;-68
2021/03/21 04:01:01;;;;;;;13.70;8.20;;;;;;;;;;5116921;28;20295;-68
2021/03/21 04:03:32;;;;;;;10.13;8.20;;;;;;;;;;5117586;28;20326;-68
2021/03/21 04:06:00;;;;;;;10.13;7.85;;;;;;;;;;5116985;28;20199;-68
2021/03/21 04:08:29;;;;;;;12.77;8.05;;;;;;;;;;5116875;28;20283;-68
2021/03/21 04:10:59;;;;;;;10.85;8.80;;;;;;;;;;5116885;28;20233;-69
2021/03/21 04:13:29;;;;;;;13.98;9.45;;;;;;;;;;5117185;28;20283;-68
2021/03/21 04:15:57;;;;;;;10.07;7.78;;;;;;;;;;5117299;28;20292;-68
2021/03/21 04:18:26;;;;;;;12.35;9.50;;;;;;;;;;5116663;28;20283;-68
2021/03/21 04:20:55;;;;;;;11.00;9.85;;;;;;;;;;5117079;28;20264;-69
2021/03/21 04:23:26;;;;;;;12.32;10.45;;;;;;;;;;5116446;28;20311;-70
2021/03/21 04:25:55;;;;;;;10.80;8.45;;;;;;;;;;5116534;28;20287;-68
2021/03/21 04:28:24;;;;;;;12.68;10.40;;;;;;;;;;5117072;28;20284;-67
2021/03/21 04:30:53;;;;;;;15.07;10.82;;;;;;;;;;5116879;28;20338;-68
2021/03/21 04:33:22;;;;;;;16.25;9.25;;;;;;;;;;5116399;28;20291;-68
2021/03/21 04:35:50;;;;;;;15.82;10.90;;;;;;;;;;5116865;28;20232;-68
2021/03/21 04:38:18;;;;;;;14.10;10.18;;;;;;;;;;5115508;28;20240;-69
2021/03/21 04:40:46;;;;;;;9.93;8.00;;;;;;;;;;5116557;28;20197;-68
2021/03/21 04:43:16;;;;;;;13.30;10.70;;;;;;;;;;5116447;28;20661;-68
2021/03/21 04:45:45;;;;;;;13.70;10.52;;;;;;;;;;5116662;28;20234;-67
2021/03/21 04:48:14;;;;;;;13.88;8.95;;;;;;;;;;5116471;28;20231;-68
2021/03/21 04:50:41;;;;;;;13.18;10.63;;;;;;;;;;5116086;28;20284;-69
2021/03/21 04:53:16;;;;;;;14.35;10.30;;;;;;;;;;5116388;28;20200;-68
2021/03/21 04:55:45;;;;;;;14.95;10.40;;;;;;;;;;5115979;28;20272;-68
2021/03/21 04:58:15;;;;;;;8.70;7.20;;;;;;;;;;5115735;28;20686;-68
2021/03/21 05:00:43;;;;;;;13.68;9.88;;;;;;;;;;5116197;28;20185;-67
2021/03/21 05:03:12;;;;;;;7.07;6.45;;;;;;;;;;5115711;28;20313;-67
2021/03/21 05:05:43;;;;;;;10.75;6.90;;;;;;;;;;5116856;28;20648;-69
2021/03/21 05:08:11;;;;;;;7.40;6.70;;;;;;;;;;5116045;28;20213;-69
2021/03/21 05:10:40;;;;;;;6.88;6.10;;;;;;;;;;5116041;28;20233;-69
2021/03/21 05:13:07;;;;;;;8.88;7.85;;;;;;;;;;5115688;28;20283;-68
2021/03/21 05:15:39;;;;;;;16.83;8.23;;;;;;;;;;5115856;28;20189;-68
2021/03/21 05:18:13;;;;;;;14.18;8.32;;;;;;;;;;5115546;28;20188;-68
2021/03/21 05:20:44;;;;;;;10.52;7.70;;;;;;;;;;5116141;28;20184;-68
2021/03/21 05:23:29;;;;;;;8.32;7.40;;;;;;;;;;5116045;28;20215;-68
2021/03/21 05:25:58;;;;;;;10.50;7.70;;;;;;;;;;5115455;28;20280;-68
2021/03/21 05:28:35;;;;;;;9.32;8.02;;;;;;;;;;5115251;28;20285;-67
2021/03/21 05:31:02;;;;;;;10.25;7.35;;;;;;;;;;5115619;28;20276;-68
2021/03/21 05:33:30;;;;;;;8.38;7.15;;;;;;;;;;5115198;28;20284;-69
2021/03/21 05:36:00;;;;;;;8.55;7.10;;;;;;;;;;5115995;28;20605;-68
2021/03/21 05:38:36;;;;;;;11.55;7.32;;;;;;;;;;5115113;28;20277;-68
2021/03/21 05:41:18;;;;;;;7.90;6.72;;;;;;;;;;5114098;28;20272;-67
2021/03/21 05:43:57;;;;;;;17.80;6.85;;;;;;;;;;5114132;28;20338;-68
2021/03/21 05:46:41;;;;;;;10.48;7.10;;;;;;;;;;5114883;28;20268;-68
2021/03/21 05:49:41;;;;;;;8.98;5.78;;;;;;;;;;5113844;28;20268;-68
2021/03/21 05:52:14;;;;;;;7.13;6.00;;;;;;;;;;5114516;28;20228;-67
2021/03/21 05:54:59;;;;;;;5.97;5.10;;;;;;;;;;5113683;28;20182;-68
2021/03/21 05:57:46;;;;;;;10.73;6.05;;;;;;;;;;5113391;28;20386;-66
2021/03/21 06:00:28;;;;;;;7.35;5.85;;;;;;;;;;5109836;28;20305;-67
2021/03/21 06:03:00;;;;;;;9.68;5.93;;;;;;;;;;5112417;28;20705;-68
2021/03/21 06:05:36;;;;;;;8.15;6.60;;;;;;;;;;5114437;28;20330;-67
2021/03/21 06:08:24;;;;;;;7.25;5.63;;;;;;;;;;5114491;28;20276;-67
2021/03/21 06:10:58;;;;;;;8.18;4.75;;;;;;;;;;5112506;28;20273;-67
2021/03/21 06:13:32;;;;;;;10.15;6.25;;;;;;;;;;5114600;28;20282;-67
2021/03/21 06:16:06;;;;;;;8.90;6.43;;;;;;;;;;5114796;28;20273;-68
2021/03/21 06:18:41;;;;;;;18.05;6.57;;;;;;;;;;5114451;28;20329;-68
2021/03/21 06:21:26;;;;;;;10.70;7.15;;;;;;;;;;5114351;28;20188;-66
2021/03/21 06:23:59;;;;;;;8.40;6.88;;;;;;;;;;5114152;28;20231;-68
2021/03/21 06:26:32;;;;;;;6.55;5.38;;;;;;;;;;5113930;28;20229;-70
2021/03/21 06:29:14;;;;;;;7.05;5.05;;;;;;;;;;5113982;28;20181;-68
2021/03/21 06:31:59;;;;;;;6.43;4.70;;;;;;;;;;5113494;28;20276;-67
2021/03/21 06:34:33;;;;;;;6.00;5.40;;;;;;;;;;5113145;28;20200;-68
2021/03/21 06:37:01;;;;;;;7.72;4.60;;;;;;;;;;5113252;28;20201;-67
2021/03/21 06:39:48;;;;;;;6.22;5.50;;;;;;;;;;5112768;28;20248;-66
2021/03/21 06:42:34;;;;;;;10.63;5.65;;;;;;;;;;5112681;28;20296;-67
2021/03/21 06:45:09;;;;;;;6.45;5.20;;;;;;;;;;5113869;28;20722;-66
2021/03/21 06:47:40;;;;;;;5.55;3.58;;;;;;;;;;5114135;28;20185;-67
2021/03/21 06:50:22;;;;;;;3.78;3.45;;;;;;;;;;5114052;28;20286;-68
2021/03/21 06:52:53;;;;;;;4.88;3.63;;;;;;;;;;5114314;28;20186;-67
2021/03/21 06:55:33;;;;;;;6.78;3.92;;;;;;;;;;5114113;28;20322;-67
2021/03/21 06:58:12;;;;;;;4.30;3.53;;;;;;;;;;5113888;28;20225;-67
2021/03/21 07:00:53;;;;;;;5.55;3.60;;;;;;;;;;5113040;28;20267;-67
2021/03/21 07:03:38;;;;;;;4.90;3.95;;;;;;;;;;5113834;28;20296;-67
2021/03/21 07:06:22;;;;;;;4.50;3.20;;;;;;;;;;5114196;28;20228;-67
2021/03/21 07:09:13;;;;;;;5.43;3.47;;;;;;;;;;5113323;28;20275;-67
2021/03/21 07:11:45;;;;;;;3.53;3.22;;;;;;;;;;5096266;28;20582;-67
2021/03/21 07:14:33;;;;;;;3.13;2.75;;;;;;;;;;5113684;28;20234;-67
2021/03/21 07:17:25;;;;;;;3.65;2.80;;;;;;;;;;5113290;28;20311;-67
2021/03/21 07:20:15;;;;;;;5.00;2.90;;;;;;;;;;5112369;28;20235;-67
2021/03/21 07:23:00;;;;;;;7.05;2.70;;;;;;;;;;5112265;28;20211;-67
2021/03/21 07:25:38;;;;;;;5.82;3.00;;;;;;;;;;5111840;28;20722;-66
2021/03/21 07:28:28;;;;;;;6.07;2.95;;;;;;;;;;5112664;28;20185;-65
2021/03/21 07:31:01;;;;;;;4.35;2.10;;;;;;;;;;5054673;28;20208;-65
2021/03/21 07:33:34;;;;;;;7.97;3.40;;;;;;;;;;5112243;28;20227;-65
2021/03/21 07:36:13;;;;;;;9.23;4.38;;;;;;;;;;5111819;28;20277;-66
2021/03/21 07:38:59;;;;;;;3.17;2.35;;;;;;;;;;5112812;28;20276;-68
2021/03/21 07:41:31;;;;;;;5.40;2.60;;;;;;;;;;5113243;28;20227;-67
2021/03/21 07:44:09;;;;;;;13.65;3.25;;;;;;;;;;5113519;28;20181;-67
2021/03/21 07:46:49;;;;;;;8.70;3.42;;;;;;;;;;5113233;28;20275;-67
2021/03/21 07:49:24;;;;;;;7.35;2.53;;;;;;;;;;5112757;28;20310;-77
2021/03/21 07:51:56;;;;;;;6.93;2.60;;;;;;;;;;5113125;28;20281;-75
2021/03/21 07:54:27;;;;;;;7.72;3.17;;;;;;;;;;5113117;28;20226;-70
2021/03/21 07:56:56;;;;;;;5.15;2.50;;;;;;;;;;5113744;28;20197;-70
2021/03/21 07:59:24;;;;;;;9.02;3.35;;;;;;;;;;5113819;28;20191;-71
2021/03/21 08:01:51;;;;;;;13.13;3.10;;;;;;;;;;5112670;28;20305;-69
2021/03/21 08:04:23;;;;;;;7.10;2.75;;;;;;;;;;5113322;28;20235;-68
2021/03/21 08:06:55;;;;;;;4.05;2.25;;;;;;;;;;5112978;28;20221;-67
2021/03/21 08:09:23;;;;;;;15.05;3.30;;;;;;;;;;5112600;28;20298;-67
2021/03/21 08:11:53;;;;;;;9.10;2.78;;;;;;;;;;5113059;28;20695;-68
2021/03/21 08:14:24;;;;;;;10.75;3.28;;;;;;;;;;5116784;28;20237;-67
2021/03/21 08:16:53;;;;;;;10.15;2.92;;;;;;;;;;5116726;28;20268;-67
2021/03/21 08:19:24;;;;;;;5.63;3.05;;;;;;;;;;5116685;28;20635;-66
2021/03/21 08:21:51;;;;;;;8.13;3.03;;;;;;;;;;5116746;28;20647;-69
2021/03/21 08:24:20;;;;;;;3.08;2.20;;;;;;;;;;5116922;28;20613;-68
2021/03/21 08:26:47;;;;;;;10.23;3.60;;;;;;;;;;5115945;28;20201;-67
2021/03/21 08:29:18;;;;;;;4.75;3.03;;;;;;;;;;5117066;28;20194;-69
2021/03/21 08:31:46;;;;;;;12.88;4.32;;;;;;;;;;5116510;28;20710;-69
2021/03/21 08:34:33;;;;;;;12.10;3.80;;;;;;;;;;5117077;27;20251;-68
2021/03/21 08:37:01;;;;;;;12.30;3.22;;;;;;;;;;5111383;28;20280;-68
2021/03/21 08:39:32;;;;;;;11.02;2.80;;;;;;;;;;5116256;28;20192;-67
2021/03/21 08:42:00;;;;;;;12.55;3.35;;;;;;;;;;5116261;28;20209;-69
2021/03/21 08:44:31;;;;;;;15.10;3.05;;;;;;;;;;5116786;28;20543;-68
2021/03/21 08:46:58;;;;;;;5.45;2.20;;;;;;;;;;5116515;28;20275;-70
2021/03/21 08:49:26;;;;;;;12.57;4.53;;;;;;;;;;5116283;28;20296;-68
2021/03/21 08:51:54;;;;;;;15.38;4.82;;;;;;;;;;5116184;28;20283;-67
2021/03/21 08:54:22;;;;;;;19.23;4.75;;;;;;;;;;5115995;28;20247;-67
2021/03/21 08:57:04;;;;;;;13.93;3.25;;;;;;;;;;5116226;28;20197;-67
2021/03/21 08:59:32;;;;;;;20.08;4.53;;;;;;;;;;5115855;28;20272;-67
2021/03/21 09:02:14;;;;;;;12.43;4.43;;;;;;;;;;5115128;27;20228;-67
2021/03/21 09:04:42;;;;;;;15.98;4.00;;;;;;;;;;5113970;28;20192;-67
2021/03/21 09:07:17;;;;;;;22.48;5.55;;;;;;;;;;5115557;28;20288;-66
2021/03/21 09:09:45;;;;;;;11.05;4.32;;;;;;;;;;5116578;27;20314;-67
2021/03/21 09:12:28;;;;;;;19.52;5.65;;;;;;;;;;5115491;28;20212;-66
2021/03/21 09:15:10;;;;;;;25.20;4.72;;;;;;;;;;5115794;28;20280;-67
2021/03/21 09:17:37;;;;;;;35.33;5.60;;;;;;;;;;5115703;28;20193;-66
2021/03/21 09:20:04;;;;;;;15.18;4.60;;;;;;;;;;5115471;27;20229;-67
2021/03/21 09:22:33;;;;;;;18.85;5.32;;;;;;;;;;5115504;28;20288;-69
2021/03/21 09:25:04;;;;;;;14.52;4.63;;;;;;;;;;5115139;28;20276;-70
2021/03/21 09:27:32;;;;;;;16.58;4.97;;;;;;;;;;5115473;28;20224;-71
2021/03/21 09:30:00;;;;;;;17.83;5.40;;;;;;;;;;5115658;28;20198;-66
2021/03/21 09:32:29;;;;;;;14.82;4.30;;;;;;;;;;5115015;28;20204;-65
2021/03/21 09:35:09;;;;;;;21.00;4.25;;;;;;;;;;5115159;27;20229;-65
2021/03/21 09:37:38;;;;;;;21.92;4.90;;;;;;;;;;5115214;28;20217;-66
2021/03/21 09:40:11;;;;;;;21.30;5.93;;;;;;;;;;5115153;28;20645;-68
2021/03/21 09:42:38;;;;;;;25.42;5.28;;;;;;;;;;5114673;28;20605;-68
2021/03/21 09:45:06;;;;;;;24.60;4.50;;;;;;;;;;5115040;28;20735;-68
2021/03/21 09:47:36;;;;;;;25.85;5.95;;;;;;;;;;5114866;28;20280;-68
2021/03/21 09:50:12;;;;;;;21.65;4.40;;;;;;;;;;5115326;28;20237;-67
2021/03/21 09:52:41;;;;;;;27.33;4.80;;;;;;;;;;5114763;28;20275;-68
2021/03/21 09:55:16;;;;;;;27.48;5.15;;;;;;;;;;5114768;28;20193;-65
2021/03/21 09:58:09;;;;;;;17.63;5.45;;;;;;;;;;5114571;28;20304;-64
2021/03/21 10:00:37;;;;;;;17.30;5.25;;;;;;;;;;5078567;28;20288;-65
2021/03/21 10:03:09;;;;;;;19.75;6.85;;;;;;;;;;5114378;28;20244;-63
2021/03/21 10:05:39;;;;;;;23.88;6.60;;;;;;;;;;5114567;28;20268;-64
2021/03/21 10:08:11;;;;;;;14.77;5.28;;;;;;;;;;5114776;28;20236;-65
2021/03/21 10:10:40;;;;;;;26.70;6.00;;;;;;;;;;5114455;28;20695;-65
2021/03/21 10:13:07;;;;;;;30.27;5.25;;;;;;;;;;5114209;28;20282;-64
2021/03/21 10:15:49;;;;;;;22.50;5.10;;;;;;;;;;5113911;28;20240;-64
2021/03/21 10:18:39;;;;;;;21.67;5.45;;;;;;;;;;5114325;28;20212;-65
2021/03/21 10:21:07;;;;;;;24.73;4.72;;;;;;;;;;5115014;27;20516;-69
2021/03/21 10:23:51;;;;;;;25.88;7.38;;;;;;;;;;5114235;28;20307;-69
2021/03/21 10:26:19;;;;;;;26.05;4.90;;;;;;;;;;5113926;28;20203;-67
2021/03/21 10:28:47;;;;;;;20.25;4.47;;;;;;;;;;5114156;28;20232;-68
2021/03/21 10:31:27;;;;;;;13.65;4.30;;;;;;;;;;5114295;28;20236;-66
2021/03/21 10:33:55;;;;;;;21.63;4.85;;;;;;;;;;5114366;28;20247;-65
2021/03/21 10:36:37;;;;;;;22.23;5.78;;;;;;;;;;5113541;28;20229;-66
2021/03/21 10:39:04;;;;;;;32.20;6.20;;;;;;;;;;5113562;28;20232;-65
2021/03/21 10:41:49;;;;;;;23.48;5.75;;;;;;;;;;5113880;28;20312;-64
2021/03/21 10:44:17;;;;;;;29.95;6.60;;;;;;;;;;5113945;28;20289;-66
2021/03/21 10:46:45;;;;;;;18.60;4.28;;;;;;;;;;5113749;28;20251;-64
2021/03/21 10:49:11;;;;;;;16.23;6.00;;;;;;;;;;5113726;28;20198;-65
2021/03/21 10:51:57;;;;;;;25.58;5.47;;;;;;;;;;5113373;28;20720;-65
2021/03/21 10:54:25;;;;;;;24.73;8.25;;;;;;;;;;5113776;28;20288;-65
2021/03/21 10:57:10;;;;;;;27.67;5.70;;;;;;;;;;5114142;28;20289;-65
2021/03/21 10:59:38;;;;;;;25.13;6.85;;;;;;;;;;5104015;28;20197;-64
2021/03/21 11:02:20;;;;;;;21.23;6.00;;;;;;;;;;5113885;28;20605;-66
2021/03/21 11:04:48;;;;;;;31.73;4.88;;;;;;;;;;5113799;28;20269;-66
2021/03/21 11:07:18;;;;;;;17.95;3.75;;;;;;;;;;5113402;28;20674;-65
2021/03/21 11:09:53;;;;;;;25.73;5.28;;;;;;;;;;5113760;28;20226;-66
2021/03/21 11:12:29;;;;;;;16.95;5.07;;;;;;;;;;5111558;28;20198;-65
2021/03/21 11:14:56;;;;;;;24.17;5.97;;;;;;;;;;5113432;28;20279;-65
2021/03/21 11:17:24;;;;;;;23.02;5.57;;;;;;;;;;5113415;28;20715;-68
2021/03/21 11:19:52;;;;;;;20.40;4.90;;;;;;;;;;5113538;28;20648;-69
2021/03/21 11:22:24;;;;;;;23.80;7.57;;;;;;;;;;5112440;28;20219;-67
2021/03/21 11:24:51;;;;;;;26.92;6.60;;;;;;;;;;5111916;28;20298;-65
2021/03/21 11:27:25;;;;;;;18.50;4.63;;;;;;;;;;5112696;28;20277;-65
2021/03/21 11:29:52;;;;;;;16.15;5.03;;;;;;;;;;5112502;28;20617;-65
2021/03/21 11:32:22;;;;;;;16.75;4.05;;;;;;;;;;5112060;28;20230;-65
2021/03/21 11:34:59;;;;;;;16.90;5.97;;;;;;;;;;5113576;28;20205;-65
2021/03/21 11:37:30;;;;;;;16.98;4.80;;;;;;;;;;5113130;28;20213;-66
2021/03/21 11:39:58;;;;;;;17.95;5.97;;;;;;;;;;5113529;28;20182;-64
2021/03/21 11:42:26;;;;;;;29.60;6.10;;;;;;;;;;5111522;28;20231;-65
2021/03/21 11:44:53;;;;;;;29.17;6.13;;;;;;;;;;5113172;28;20208;-66
2021/03/21 11:47:28;;;;;;;19.58;5.45;;;;;;;;;;5115130;28;20396;-66
2021/03/21 11:49:55;;;;;;;28.35;6.80;;;;;;;;;;5116891;28;20280;-64
2021/03/21 11:52:22;;;;;;;18.38;5.53;;;;;;;;;;5117036;28;20238;-65
2021/03/21 11:54:49;;;;;;;24.70;5.47;;;;;;;;;;5117279;28;20204;-66
2021/03/21 11:57:22;;;;;;;27.63;5.97;;;;;;;;;;5117250;28;20278;-67
2021/03/21 11:59:53;;;;;;;30.10;6.45;;;;;;;;;;5116997;28;20576;-68
2021/03/21 12:02:32;;;;;;;22.63;6.55;;;;;;;;;;5116766;28;20206;-68
2021/03/21 12:05:00;;;;;;;27.98;5.30;;;;;;;;;;5117514;28;20254;-68
2021/03/21 12:07:28;;;;;;;14.73;4.93;;;;;;;;;;5116929;28;20230;-68
2021/03/21 12:09:55;;;;;;;21.30;5.22;;;;;;;;;;5116955;28;20206;-68
2021/03/21 12:12:36;;;;;;;18.20;4.90;;;;;;;;;;5115062;28;20293;-68
2021/03/21 12:15:03;;;;;;;17.45;4.35;;;;;;;;;;5116004;28;20635;-65
2021/03/21 12:17:35;;;;;;;14.25;4.82;;;;;;;;;;5117125;28;20240;-66
2021/03/21 12:20:20;;;;;;;19.58;5.93;;;;;;;;;;5116550;28;20194;-66
2021/03/21 12:22:49;;;;;;;23.98;6.43;;;;;;;;;;5116226;28;20217;-65
2021/03/21 12:25:20;;;;;;;17.33;4.85;;;;;;;;;;5116670;28;20201;-66
2021/03/21 12:27:47;;;;;;;28.17;6.63;;;;;;;;;;5115684;28;20298;-67
2021/03/21 12:30:17;;;;;;;19.55;4.97;;;;;;;;;;5116000;28;20236;-67
2021/03/21 12:32:45;;;;;;;16.77;4.43;;;;;;;;;;5116496;28;20264;-66
2021/03/21 12:35:13;;;;;;;37.50;5.38;;;;;;;;;;5116547;28;20278;-67
2021/03/21 12:37:46;;;;;;;13.88;5.47;;;;;;;;;;5115989;28;20195;-69
2021/03/21 12:40:15;;;;;;;13.57;5.05;;;;;;;;;;5115970;28;20285;-70
2021/03/21 12:42:42;;;;;;;17.50;4.85;;;;;;;;;;5114504;28;20248;-67
2021/03/21 12:45:13;;;;;;;22.27;5.60;;;;;;;;;;5115809;28;20667;-65
2021/03/21 12:47:40;;;;;;;28.77;4.78;;;;;;;;;;5116718;28;20214;-67
2021/03/21 12:50:25;;;;;;;12.63;4.40;;;;;;;;;;5116179;28;20272;-66
2021/03/21 12:52:53;;;;;;;21.98;4.97;;;;;;;;;;5116560;27;20241;-68
2021/03/21 12:55:20;;;;;;;20.85;4.72;;;;;;;;;;5115820;28;20193;-67
2021/03/21 12:57:47;;;;;;;18.95;4.30;;;;;;;;;;5115179;28;20320;-70
2021/03/21 13:00:17;;;;;;;25.35;6.13;;;;;;;;;;5114860;28;20219;-67
2021/03/21 13:02:44;;;;;;;23.75;6.03;;;;;;;;;;5116317;28;20229;-68
2021/03/21 13:05:19;;;;;;;19.55;4.80;;;;;;;;;;5115186;28;20670;-68
2021/03/21 13:07:46;;;;;;;18.50;3.95;;;;;;;;;;5115825;28;20178;-68
2021/03/21 13:10:14;;;;;;;17.40;4.55;;;;;;;;;;5115730;28;20230;-67
2021/03/21 13:12:41;;;;;;;11.40;3.95;;;;;;;;;;5113894;28;20619;-67
2021/03/21 13:15:08;;;;;;;14.88;5.22;;;;;;;;;;5115102;28;20190;-69
2021/03/21 13:17:35;;;;;;;22.88;4.93;;;;;;;;;;5116041;28;20676;-67
2021/03/21 13:20:02;;;;;;;23.35;4.97;;;;;;;;;;5116025;28;20660;-66
2021/03/21 13:22:28;;;;;;;13.90;4.20;;;;;;;;;;5115322;28;20285;-67
2021/03/21 13:24:55;;;;;;;22.40;5.05;;;;;;;;;;5115671;28;20283;-66
2021/03/21 13:27:23;;;;;;;20.10;6.80;;;;;;;;;;5115155;28;20286;-68
2021/03/21 13:29:49;;;;;;;19.92;4.97;;;;;;;;;;5114966;28;20228;-65
2021/03/21 13:32:16;;;;;;;17.08;6.15;;;;;;;;;;5115333;28;20708;-66
2021/03/21 13:34:43;;;;;;;19.95;5.28;;;;;;;;;;5115584;28;20614;-67
2021/03/21 13:37:10;;;;;;;14.60;4.18;;;;;;;;;;5115495;28;20559;-66
2021/03/21 13:39:36;;;;;;;28.77;5.75;;;;;;;;;;5114763;27;20711;-67
2021/03/21 13:42:04;;;;;;;19.30;4.75;;;;;;;;;;5114716;28;20238;-67
2021/03/21 13:44:32;;;;;;;17.45;5.53;;;;;;;;;;5112965;27;20604;-66
2021/03/21 13:46:59;;;;;;;22.90;5.03;;;;;;;;;;5114843;28;20198;-66
2021/03/21 13:49:25;;;;;;;26.27;6.35;;;;;;;;;;5115438;28;20251;-66
2021/03/21 13:51:52;;;;;;;30.67;6.47;;;;;;;;;;5114516;28;20285;-68
2021/03/21 13:54:21;;;;;;;26.95;6.43;;;;;;;;;;5114495;28;20279;-66
2021/03/21 13:56:47;;;;;;;22.02;6.28;;;;;;;;;;5114238;28;20205;-66
2021/03/21 13:59:14;;;;;;;26.17;5.78;;;;;;;;;;5114594;28;20315;-65
2021/03/21 14:01:42;;;;;;;14.93;4.53;;;;;;;;;;5115044;28;20280;-66
2021/03/21 14:04:09;;;;;;;22.10;5.78;;;;;;;;;;5113760;28;20754;-67
2021/03/21 14:06:35;;;;;;;24.13;4.95;;;;;;;;;;5114678;28;20200;-66
2021/03/21 14:09:02;;;;;;;18.85;4.85;;;;;;;;;;5114877;28;20227;-69
2021/03/21 14:11:29;;;;;;;9.85;4.05;;;;;;;;;;5114778;28;20194;-67
2021/03/21 14:13:56;;;;;;;12.32;4.30;;;;;;;;;;5112287;28;20298;-67
2021/03/21 14:16:23;;;;;;;13.80;3.58;;;;;;;;;;5113441;28;20284;-67
2021/03/21 14:18:51;;;;;;;16.33;5.75;;;;;;;;;;5114307;28;20209;-68
2021/03/21 14:21:17;;;;;;;19.23;4.65;;;;;;;;;;5114752;28;20235;-68
2021/03/21 14:23:44;;;;;;;27.02;6.03;;;;;;;;;;5113886;28;20210;-67
2021/03/21 14:26:11;;;;;;;22.00;4.65;;;;;;;;;;5113471;28;20200;-64
2021/03/21 14:28:38;;;;;;;12.52;4.68;;;;;;;;;;5113621;28;20195;-70
2021/03/21 14:31:05;;;;;;;25.83;6.00;;;;;;;;;;5114370;28;20238;-67
2021/03/21 14:33:34;;;;;;;15.90;4.80;;;;;;;;;;5114105;28;20692;-66
2021/03/21 14:36:01;;;;;;;17.52;4.65;;;;;;;;;;5113628;28;20199;-68
2021/03/21 14:38:29;;;;;;;19.65;5.10;;;;;;;;;;5113862;28;20234;-68
2021/03/21 14:40:56;;;;;;;21.05;4.88;;;;;;;;;;5113497;28;20203;-68
2021/03/21 14:43:23;;;;;;;11.32;4.22;;;;;;;;;;5113593;28;20298;-66
2021/03/21 14:45:50;;;;;;;19.27;4.10;;;;;;;;;;5111803;28;20216;-67
2021/03/21 14:48:17;;;;;;;20.35;5.40;;;;;;;;;;5114112;28;20645;-67
2021/03/21 14:50:43;;;;;;;21.77;4.45;;;;;;;;;;5113619;28;20198;-68
2021/03/21 14:53:11;;;;;;;28.35;4.97;;;;;;;;;;5113623;28;20205;-65
2021/03/21 14:55:43;;;;;;;20.33;4.35;;;;;;;;;;5113364;28;20226;-68
2021/03/21 14:58:10;;;;;;;21.95;5.00;;;;;;;;;;5113758;28;20230;-67